Wednesday, December 12, 2018, 11:10 PM EST
Back to Local

KHWV, Shirley Brookhaven Airport

Location: Shirley, NY, United States Lat: 40.817
Local Time: 11:10 PM EST ( 4:10 GMT) Lon: -72.867
Time Zone: US/Eastern Elev: 82 ft

Show me the last for .
Show Decoded

2018-12-12 21:56 METAR KHWV 130256Z AUTO 00000KT 8SM CLR M04/M07 A3027 RMK AO2 SLP253 T10391072
                 51020 =
2018-12-12 20:56 METAR KHWV 130156Z AUTO 00000KT 10SM CLR M03/M07 A3026 RMK AO2 SLP248 T10331067
                 =
2018-12-12 19:56 METAR KHWV 130056Z AUTO 00000KT 10SM CLR M02/M07 A3024 RMK AO2 SLP242 T10221067
                 =
2018-12-12 18:56 METAR KHWV 122356Z AUTO 00000KT 10SM CLR M01/M06 A3022 RMK AO2 SLP233 T10111061
                 10044 21017 51026 =
2018-12-12 17:56 METAR KHWV 122256Z AUTO 35004KT 10SM CLR M01/M07 A3020 RMK AO2 SLP227 T10061067
                 =
2018-12-12 16:56 METAR KHWV 122156Z AUTO 30003KT 10SM FEW045 02/M07 A3017 RMK AO2 SLP216
                 T00171067 =
2018-12-12 15:56 METAR KHWV 122056Z AUTO 32007KT 10SM SCT046 03/M07 A3014 RMK AO2 SLP207
                 T00281067 53011 =
2018-12-12 14:56 METAR KHWV 121956Z AUTO 28009KT 10SM FEW045 04/M07 A3013 RMK AO2 SLP203
                 T00391067 =
2018-12-12 13:56 METAR KHWV 121856Z AUTO 31009KT 10SM FEW042 04/M06 A3011 RMK AO2 SLP195
                 T00391061 =
2018-12-12 12:56 METAR KHWV 121756Z AUTO 31010KT 10SM SCT042 04/M06 A3011 RMK AO2 SLP195 60000
                 T00391061 10044 21011 58003 =
2018-12-12 11:56 METAR KHWV 121656Z AUTO 32013KT 10SM CLR 04/M07 A3011 RMK AO2 SLP198 T00391067 =
2018-12-12 10:56 METAR KHWV 121556Z AUTO 31011G20KT 270V340 10SM CLR 03/M06 A3012 RMK AO2 SLP200
                 T00331061 =
2018-12-12 09:56 METAR KHWV 121456Z AUTO 30011G20KT 10SM CLR 02/M06 A3012 RMK AO2 RAB13E23 SLP200
                 P0000 60000 T00221061 51027 =
2018-12-12 08:56 METAR KHWV 121356Z AUTO 33014G17KT 10SM CLR 02/M05 A3010 RMK AO2 SLP193
                 T00171050 =
2018-12-12 07:56 METAR KHWV 121256Z AUTO 28003KT 10SM CLR M01/M06 A3006 RMK AO2 SLP181 T10061056
                 =
2018-12-12 06:56 METAR KHWV 121156Z AUTO 29005KT 10SM OVC070 M01/M06 A3004 RMK AO2 SLP173
                 T10061056 10006 21006 53023 =
2018-12-12 05:56 METAR KHWV 121056Z AUTO 31005KT 10SM OVC075 M01/M06 A3002 RMK AO2 SLP165
                 T10061061 =
2018-12-12 04:56 METAR KHWV 120956Z AUTO 33007KT 10SM OVC070 M01/M06 A2999 RMK AO2 SLP157
                 T10061061 =
2018-12-12 03:56 METAR KHWV 120856Z AUTO 32009KT 10SM OVC070 M01/M07 A2997 RMK AO2 SLP150
                 T10061067 51015 =
2018-12-12 02:56 METAR KHWV 120756Z AUTO 30009KT 10SM OVC065 M01/M07 A2996 RMK AO2 SLP146
                 T10061067 =
2018-12-12 01:56 METAR KHWV 120656Z AUTO 32007KT 10SM FEW034 OVC060 01/M06 A2995 RMK AO2 SLP140
                 T00061061 =
2018-12-12 00:56 METAR KHWV 120556Z AUTO 31006KT 10SM BKN049 OVC055 00/M04 A2993 RMK AO2 SLP134
                 I6000 T00001044 10000 21033 55002 =
2018-12-11 23:56 METAR KHWV 120456Z AUTO 29007KT 9SM SCT055 M01/M05 A2992 RMK AO2 SLP131
                 T10111050 400441078 =

Support USWX by starting your Amazon purchase here.